sensor_id;sensor_type;location;lat;lon;timestamp;P1;durP1;ratioP1;P2;durP2;ratioP2
44137;SDS011;29800;55.942;37.314;2022-11-25T00:01:08;8.18;;;3.83;;
44137;SDS011;29800;55.942;37.314;2022-11-25T00:03:36;6.55;;;3.47;;
44137;SDS011;29800;55.942;37.314;2022-11-25T00:06:07;8.65;;;3.65;;
44137;SDS011;29800;55.942;37.314;2022-11-25T00:08:38;8.65;;;3.42;;
44137;SDS011;29800;55.942;37.314;2022-11-25T00:11:05;9.07;;;4.22;;
44137;SDS011;29800;55.942;37.314;2022-11-25T00:13:32;11.48;;;4.70;;
44137;SDS011;29800;55.942;37.314;2022-11-25T00:16:01;8.60;;;4.65;;
44137;SDS011;29800;55.942;37.314;2022-11-25T00:18:29;9.38;;;4.43;;
44137;SDS011;29800;55.942;37.314;2022-11-25T00:20:56;9.27;;;3.75;;
44137;SDS011;29800;55.942;37.314;2022-11-25T00:23:23;7.70;;;4.15;;
44137;SDS011;29800;55.942;37.314;2022-11-25T00:25:49;8.52;;;3.65;;
44137;SDS011;29800;55.942;37.314;2022-11-25T00:28:15;8.13;;;3.63;;
44137;SDS011;29800;55.942;37.314;2022-11-25T00:30:44;7.25;;;3.83;;
44137;SDS011;29800;55.942;37.314;2022-11-25T00:33:11;9.85;;;4.30;;
44137;SDS011;29800;55.942;37.314;2022-11-25T00:35:37;7.05;;;3.85;;
44137;SDS011;29800;55.942;37.314;2022-11-25T00:38:03;8.63;;;4.00;;
44137;SDS011;29800;55.942;37.314;2022-11-25T00:40:30;6.78;;;3.67;;
44137;SDS011;29800;55.942;37.314;2022-11-25T00:42:56;7.13;;;3.55;;
44137;SDS011;29800;55.942;37.314;2022-11-25T00:45:41;8.55;;;4.00;;
44137;SDS011;29800;55.942;37.314;2022-11-25T00:48:08;6.63;;;3.50;;
44137;SDS011;29800;55.942;37.314;2022-11-25T00:50:34;9.90;;;3.67;;
44137;SDS011;29800;55.942;37.314;2022-11-25T00:53:00;7.20;;;3.75;;
44137;SDS011;29800;55.942;37.314;2022-11-25T00:55:26;7.40;;;3.58;;
44137;SDS011;29800;55.942;37.314;2022-11-25T00:58:12;7.38;;;3.95;;
44137;SDS011;29800;55.942;37.314;2022-11-25T01:00:38;7.15;;;3.60;;
44137;SDS011;29800;55.942;37.314;2022-11-25T01:03:05;8.98;;;3.80;;
44137;SDS011;29800;55.942;37.314;2022-11-25T01:05:31;7.30;;;3.55;;
44137;SDS011;29800;55.942;37.314;2022-11-25T01:07:57;7.53;;;4.13;;
44137;SDS011;29800;55.942;37.314;2022-11-25T01:10:23;8.48;;;4.07;;
44137;SDS011;29800;55.942;37.314;2022-11-25T01:12:49;8.88;;;4.07;;
44137;SDS011;29800;55.942;37.314;2022-11-25T01:15:15;7.45;;;4.00;;
44137;SDS011;29800;55.942;37.314;2022-11-25T01:17:41;8.00;;;3.75;;
44137;SDS011;29800;55.942;37.314;2022-11-25T01:20:07;6.90;;;3.67;;
44137;SDS011;29800;55.942;37.314;2022-11-25T01:22:34;8.45;;;4.10;;
44137;SDS011;29800;55.942;37.314;2022-11-25T01:25:01;9.15;;;4.50;;
44137;SDS011;29800;55.942;37.314;2022-11-25T01:27:28;7.57;;;4.15;;
44137;SDS011;29800;55.942;37.314;2022-11-25T01:29:54;9.00;;;4.50;;
44137;SDS011;29800;55.942;37.314;2022-11-25T01:32:21;10.73;;;4.78;;
44137;SDS011;29800;55.942;37.314;2022-11-25T01:34:47;10.70;;;4.60;;
44137;SDS011;29800;55.942;37.314;2022-11-25T01:37:13;8.13;;;4.55;;
44137;SDS011;29800;55.942;37.314;2022-11-25T01:39:42;11.52;;;5.22;;
44137;SDS011;29800;55.942;37.314;2022-11-25T01:42:08;10.52;;;4.57;;
44137;SDS011;29800;55.942;37.314;2022-11-25T01:44:34;9.35;;;4.60;;
44137;SDS011;29800;55.942;37.314;2022-11-25T01:47:17;10.80;;;5.45;;
44137;SDS011;29800;55.942;37.314;2022-11-25T01:52:30;10.55;;;4.72;;
44137;SDS011;29800;55.942;37.314;2022-11-25T01:55:02;10.00;;;5.07;;
44137;SDS011;29800;55.942;37.314;2022-11-25T01:57:45;10.93;;;5.18;;
44137;SDS011;29800;55.942;37.314;2022-11-25T02:00:13;10.82;;;4.88;;
44137;SDS011;29800;55.942;37.314;2022-11-25T02:02:43;10.73;;;5.15;;
44137;SDS011;29800;55.942;37.314;2022-11-25T02:05:11;11.80;;;4.97;;
44137;SDS011;29800;55.942;37.314;2022-11-25T02:07:40;11.43;;;5.10;;
44137;SDS011;29800;55.942;37.314;2022-11-25T02:10:12;11.88;;;6.03;;
44137;SDS011;29800;55.942;37.314;2022-11-25T02:12:42;11.85;;;5.50;;
44137;SDS011;29800;55.942;37.314;2022-11-25T02:15:11;12.80;;;5.43;;
44137;SDS011;29800;55.942;37.314;2022-11-25T02:17:38;12.10;;;5.43;;
44137;SDS011;29800;55.942;37.314;2022-11-25T02:20:06;11.63;;;5.72;;
44137;SDS011;29800;55.942;37.314;2022-11-25T02:25:38;9.75;;;5.43;;
44137;SDS011;29800;55.942;37.314;2022-11-25T02:30:41;12.35;;;5.68;;
44137;SDS011;29800;55.942;37.314;2022-11-25T02:33:08;15.55;;;6.80;;
44137;SDS011;29800;55.942;37.314;2022-11-25T02:38:07;14.52;;;6.82;;
44137;SDS011;29800;55.942;37.314;2022-11-25T02:41:01;11.40;;;5.97;;
44137;SDS011;29800;55.942;37.314;2022-11-25T02:43:45;10.65;;;4.55;;
44137;SDS011;29800;55.942;37.314;2022-11-25T02:46:13;11.57;;;5.70;;
44137;SDS011;29800;55.942;37.314;2022-11-25T02:48:44;11.38;;;5.55;;
44137;SDS011;29800;55.942;37.314;2022-11-25T02:51:12;15.57;;;6.68;;
44137;SDS011;29800;55.942;37.314;2022-11-25T02:53:40;13.52;;;6.10;;
44137;SDS011;29800;55.942;37.314;2022-11-25T02:56:06;12.95;;;6.28;;
44137;SDS011;29800;55.942;37.314;2022-11-25T02:58:33;13.95;;;6.57;;
44137;SDS011;29800;55.942;37.314;2022-11-25T03:01:00;18.25;;;7.07;;
44137;SDS011;29800;55.942;37.314;2022-11-25T03:03:26;12.82;;;6.13;;
44137;SDS011;29800;55.942;37.314;2022-11-25T03:05:53;13.88;;;6.15;;
44137;SDS011;29800;55.942;37.314;2022-11-25T03:08:19;13.02;;;6.32;;
44137;SDS011;29800;55.942;37.314;2022-11-25T03:10:47;12.60;;;6.57;;
44137;SDS011;29800;55.942;37.314;2022-11-25T03:13:13;12.95;;;6.53;;
44137;SDS011;29800;55.942;37.314;2022-11-25T03:15:40;14.18;;;6.68;;
44137;SDS011;29800;55.942;37.314;2022-11-25T03:18:06;13.30;;;5.88;;
44137;SDS011;29800;55.942;37.314;2022-11-25T03:20:34;13.32;;;6.15;;
44137;SDS011;29800;55.942;37.314;2022-11-25T03:23:02;13.15;;;6.20;;
44137;SDS011;29800;55.942;37.314;2022-11-25T03:25:30;14.35;;;6.88;;
44137;SDS011;29800;55.942;37.314;2022-11-25T03:27:59;12.90;;;6.22;;
44137;SDS011;29800;55.942;37.314;2022-11-25T03:30:26;14.73;;;7.00;;
44137;SDS011;29800;55.942;37.314;2022-11-25T03:32:57;15.73;;;7.50;;
44137;SDS011;29800;55.942;37.314;2022-11-25T03:35:24;15.25;;;7.43;;
44137;SDS011;29800;55.942;37.314;2022-11-25T03:37:52;13.68;;;6.65;;
44137;SDS011;29800;55.942;37.314;2022-11-25T03:40:18;15.63;;;6.75;;
44137;SDS011;29800;55.942;37.314;2022-11-25T03:42:44;15.77;;;6.50;;
44137;SDS011;29800;55.942;37.314;2022-11-25T03:45:12;14.43;;;7.05;;
44137;SDS011;29800;55.942;37.314;2022-11-25T03:47:40;16.40;;;6.88;;
44137;SDS011;29800;55.942;37.314;2022-11-25T03:50:08;16.15;;;6.78;;
44137;SDS011;29800;55.942;37.314;2022-11-25T03:52:36;14.68;;;6.30;;
44137;SDS011;29800;55.942;37.314;2022-11-25T03:55:04;16.17;;;7.10;;
44137;SDS011;29800;55.942;37.314;2022-11-25T03:57:33;17.15;;;6.82;;
44137;SDS011;29800;55.942;37.314;2022-11-25T04:00:00;13.80;;;6.40;;
44137;SDS011;29800;55.942;37.314;2022-11-25T04:02:32;14.02;;;6.68;;
44137;SDS011;29800;55.942;37.314;2022-11-25T04:04:58;13.23;;;6.55;;
44137;SDS011;29800;55.942;37.314;2022-11-25T04:07:24;13.75;;;6.55;;
44137;SDS011;29800;55.942;37.314;2022-11-25T04:09:52;13.70;;;5.93;;
44137;SDS011;29800;55.942;37.314;2022-11-25T04:12:28;13.95;;;6.68;;
44137;SDS011;29800;55.942;37.314;2022-11-25T04:15:19;13.20;;;5.53;;
44137;SDS011;29800;55.942;37.314;2022-11-25T04:17:51;14.10;;;6.28;;
44137;SDS011;29800;55.942;37.314;2022-11-25T04:20:17;14.02;;;6.07;;
44137;SDS011;29800;55.942;37.314;2022-11-25T04:22:50;12.40;;;5.78;;
44137;SDS011;29800;55.942;37.314;2022-11-25T04:25:18;12.82;;;5.53;;
44137;SDS011;29800;55.942;37.314;2022-11-25T04:27:45;12.85;;;4.80;;
44137;SDS011;29800;55.942;37.314;2022-11-25T04:30:14;10.95;;;5.38;;
44137;SDS011;29800;55.942;37.314;2022-11-25T04:32:42;11.45;;;5.07;;
44137;SDS011;29800;55.942;37.314;2022-11-25T04:35:09;11.43;;;5.68;;
44137;SDS011;29800;55.942;37.314;2022-11-25T04:37:37;12.48;;;5.75;;
44137;SDS011;29800;55.942;37.314;2022-11-25T04:40:03;13.45;;;4.85;;
44137;SDS011;29800;55.942;37.314;2022-11-25T04:42:32;12.98;;;4.78;;
44137;SDS011;29800;55.942;37.314;2022-11-25T04:45:06;12.93;;;4.97;;
44137;SDS011;29800;55.942;37.314;2022-11-25T04:47:42;13.68;;;5.28;;
44137;SDS011;29800;55.942;37.314;2022-11-25T04:50:14;11.98;;;5.43;;
44137;SDS011;29800;55.942;37.314;2022-11-25T04:52:53;12.40;;;5.40;;
44137;SDS011;29800;55.942;37.314;2022-11-25T04:55:19;13.02;;;5.50;;
44137;SDS011;29800;55.942;37.314;2022-11-25T04:57:45;13.68;;;5.28;;
44137;SDS011;29800;55.942;37.314;2022-11-25T05:00:14;12.63;;;5.28;;
44137;SDS011;29800;55.942;37.314;2022-11-25T05:02:40;11.80;;;5.40;;
44137;SDS011;29800;55.942;37.314;2022-11-25T05:05:13;13.38;;;5.82;;
44137;SDS011;29800;55.942;37.314;2022-11-25T05:07:39;13.18;;;5.30;;
44137;SDS011;29800;55.942;37.314;2022-11-25T05:10:06;14.35;;;5.70;;
44137;SDS011;29800;55.942;37.314;2022-11-25T05:12:38;11.75;;;5.30;;
44137;SDS011;29800;55.942;37.314;2022-11-25T05:15:08;13.95;;;5.55;;
44137;SDS011;29800;55.942;37.314;2022-11-25T05:17:38;14.77;;;5.53;;
44137;SDS011;29800;55.942;37.314;2022-11-25T05:20:04;14.68;;;6.38;;
44137;SDS011;29800;55.942;37.314;2022-11-25T05:22:33;11.82;;;5.40;;
44137;SDS011;29800;55.942;37.314;2022-11-25T05:25:01;12.15;;;5.35;;
44137;SDS011;29800;55.942;37.314;2022-11-25T05:27:30;12.35;;;5.32;;
44137;SDS011;29800;55.942;37.314;2022-11-25T05:30:02;12.68;;;5.43;;
44137;SDS011;29800;55.942;37.314;2022-11-25T05:32:30;13.10;;;5.63;;
44137;SDS011;29800;55.942;37.314;2022-11-25T05:34:58;12.25;;;5.70;;
44137;SDS011;29800;55.942;37.314;2022-11-25T05:37:24;11.73;;;4.95;;
44137;SDS011;29800;55.942;37.314;2022-11-25T05:39:57;13.05;;;5.30;;
44137;SDS011;29800;55.942;37.314;2022-11-25T05:42:23;16.75;;;6.35;;
44137;SDS011;29800;55.942;37.314;2022-11-25T05:44:50;14.75;;;5.55;;
44137;SDS011;29800;55.942;37.314;2022-11-25T05:47:17;11.77;;;5.57;;
44137;SDS011;29800;55.942;37.314;2022-11-25T05:49:43;12.63;;;5.90;;
44137;SDS011;29800;55.942;37.314;2022-11-25T05:52:09;11.63;;;5.25;;
44137;SDS011;29800;55.942;37.314;2022-11-25T05:54:45;9.57;;;5.13;;
44137;SDS011;29800;55.942;37.314;2022-11-25T05:57:11;11.15;;;5.10;;
44137;SDS011;29800;55.942;37.314;2022-11-25T05:59:45;11.25;;;5.15;;
44137;SDS011;29800;55.942;37.314;2022-11-25T06:02:18;12.00;;;4.72;;
44137;SDS011;29800;55.942;37.314;2022-11-25T06:04:44;9.75;;;4.97;;
44137;SDS011;29800;55.942;37.314;2022-11-25T06:07:10;12.27;;;5.32;;
44137;SDS011;29800;55.942;37.314;2022-11-25T06:09:38;11.82;;;4.50;;
44137;SDS011;29800;55.942;37.314;2022-11-25T06:12:05;11.20;;;4.47;;
44137;SDS011;29800;55.942;37.314;2022-11-25T06:14:35;10.73;;;4.78;;
44137;SDS011;29800;55.942;37.314;2022-11-25T06:17:01;11.65;;;5.43;;
44137;SDS011;29800;55.942;37.314;2022-11-25T06:19:38;10.55;;;4.72;;
44137;SDS011;29800;55.942;37.314;2022-11-25T06:22:05;13.32;;;5.25;;
44137;SDS011;29800;55.942;37.314;2022-11-25T06:24:31;12.40;;;5.15;;
44137;SDS011;29800;55.942;37.314;2022-11-25T06:27:02;11.10;;;4.85;;
44137;SDS011;29800;55.942;37.314;2022-11-25T06:29:29;14.02;;;5.53;;
44137;SDS011;29800;55.942;37.314;2022-11-25T06:31:55;9.95;;;5.30;;
44137;SDS011;29800;55.942;37.314;2022-11-25T06:34:32;10.73;;;4.97;;
44137;SDS011;29800;55.942;37.314;2022-11-25T06:37:02;12.57;;;5.43;;
44137;SDS011;29800;55.942;37.314;2022-11-25T06:39:29;12.43;;;5.85;;
44137;SDS011;29800;55.942;37.314;2022-11-25T06:41:55;12.65;;;5.38;;
44137;SDS011;29800;55.942;37.314;2022-11-25T06:44:21;12.63;;;4.82;;
44137;SDS011;29800;55.942;37.314;2022-11-25T06:46:47;12.50;;;5.88;;
44137;SDS011;29800;55.942;37.314;2022-11-25T06:49:13;12.55;;;5.07;;
44137;SDS011;29800;55.942;37.314;2022-11-25T06:51:39;15.63;;;5.47;;
44137;SDS011;29800;55.942;37.314;2022-11-25T06:54:06;10.32;;;5.20;;
44137;SDS011;29800;55.942;37.314;2022-11-25T06:56:33;12.40;;;5.55;;
44137;SDS011;29800;55.942;37.314;2022-11-25T06:58:59;14.55;;;5.13;;
44137;SDS011;29800;55.942;37.314;2022-11-25T07:01:26;11.50;;;5.38;;
44137;SDS011;29800;55.942;37.314;2022-11-25T07:03:54;9.75;;;5.07;;
44137;SDS011;29800;55.942;37.314;2022-11-25T07:06:23;11.55;;;4.45;;
44137;SDS011;29800;55.942;37.314;2022-11-25T07:08:49;10.90;;;4.38;;
44137;SDS011;29800;55.942;37.314;2022-11-25T07:13:59;8.75;;;3.90;;
44137;SDS011;29800;55.942;37.314;2022-11-25T07:16:28;9.52;;;3.85;;
44137;SDS011;29800;55.942;37.314;2022-11-25T07:18:54;10.98;;;4.00;;
44137;SDS011;29800;55.942;37.314;2022-11-25T07:21:22;11.57;;;4.50;;
44137;SDS011;29800;55.942;37.314;2022-11-25T07:23:49;9.63;;;4.30;;
44137;SDS011;29800;55.942;37.314;2022-11-25T07:26:17;9.90;;;4.13;;
44137;SDS011;29800;55.942;37.314;2022-11-25T07:28:46;12.32;;;4.75;;
44137;SDS011;29800;55.942;37.314;2022-11-25T07:31:21;10.40;;;5.20;;
44137;SDS011;29800;55.942;37.314;2022-11-25T07:33:52;9.95;;;4.68;;
44137;SDS011;29800;55.942;37.314;2022-11-25T07:36:20;11.20;;;3.83;;
44137;SDS011;29800;55.942;37.314;2022-11-25T07:38:47;7.38;;;3.83;;
44137;SDS011;29800;55.942;37.314;2022-11-25T07:41:15;7.90;;;3.38;;
44137;SDS011;29800;55.942;37.314;2022-11-25T07:43:48;10.07;;;4.15;;
44137;SDS011;29800;55.942;37.314;2022-11-25T07:46:24;9.60;;;4.10;;
44137;SDS011;29800;55.942;37.314;2022-11-25T07:48:59;8.77;;;3.80;;
44137;SDS011;29800;55.942;37.314;2022-11-25T07:51:27;9.07;;;4.20;;
44137;SDS011;29800;55.942;37.314;2022-11-25T07:53:56;10.10;;;4.72;;
44137;SDS011;29800;55.942;37.314;2022-11-25T07:56:23;9.82;;;4.20;;
44137;SDS011;29800;55.942;37.314;2022-11-25T07:58:50;9.35;;;4.35;;
44137;SDS011;29800;55.942;37.314;2022-11-25T08:01:16;7.57;;;3.65;;
44137;SDS011;29800;55.942;37.314;2022-11-25T08:03:44;8.93;;;4.40;;
44137;SDS011;29800;55.942;37.314;2022-11-25T08:06:13;10.57;;;4.75;;
44137;SDS011;29800;55.942;37.314;2022-11-25T08:08:45;8.80;;;4.65;;
44137;SDS011;29800;55.942;37.314;2022-11-25T08:11:16;9.65;;;4.50;;
44137;SDS011;29800;55.942;37.314;2022-11-25T08:13:44;11.18;;;4.40;;
44137;SDS011;29800;55.942;37.314;2022-11-25T08:16:11;10.80;;;4.32;;
44137;SDS011;29800;55.942;37.314;2022-11-25T08:18:38;9.80;;;4.45;;
44137;SDS011;29800;55.942;37.314;2022-11-25T08:21:05;9.23;;;4.57;;
44137;SDS011;29800;55.942;37.314;2022-11-25T08:23:34;13.10;;;4.80;;
44137;SDS011;29800;55.942;37.314;2022-11-25T08:26:05;9.25;;;4.53;;
44137;SDS011;29800;55.942;37.314;2022-11-25T08:28:34;10.80;;;5.03;;
44137;SDS011;29800;55.942;37.314;2022-11-25T08:31:02;11.02;;;4.78;;
44137;SDS011;29800;55.942;37.314;2022-11-25T08:33:33;9.38;;;4.72;;
44137;SDS011;29800;55.942;37.314;2022-11-25T08:36:00;11.10;;;5.50;;
44137;SDS011;29800;55.942;37.314;2022-11-25T08:38:26;9.10;;;3.95;;
44137;SDS011;29800;55.942;37.314;2022-11-25T08:40:53;9.48;;;4.28;;
44137;SDS011;29800;55.942;37.314;2022-11-25T08:43:20;7.85;;;4.50;;
44137;SDS011;29800;55.942;37.314;2022-11-25T08:45:46;9.18;;;4.18;;
44137;SDS011;29800;55.942;37.314;2022-11-25T08:48:14;7.93;;;4.38;;
44137;SDS011;29800;55.942;37.314;2022-11-25T08:50:44;7.00;;;4.05;;
44137;SDS011;29800;55.942;37.314;2022-11-25T08:53:14;8.43;;;3.97;;
44137;SDS011;29800;55.942;37.314;2022-11-25T08:55:40;10.35;;;4.82;;
44137;SDS011;29800;55.942;37.314;2022-11-25T08:58:07;10.38;;;4.85;;
44137;SDS011;29800;55.942;37.314;2022-11-25T09:00:36;10.38;;;4.80;;
44137;SDS011;29800;55.942;37.314;2022-11-25T09:03:02;8.65;;;3.78;;
44137;SDS011;29800;55.942;37.314;2022-11-25T09:05:28;8.05;;;4.32;;
44137;SDS011;29800;55.942;37.314;2022-11-25T09:08:01;10.48;;;4.50;;
44137;SDS011;29800;55.942;37.314;2022-11-25T09:10:28;7.95;;;4.18;;
44137;SDS011;29800;55.942;37.314;2022-11-25T09:12:54;10.15;;;4.05;;
44137;SDS011;29800;55.942;37.314;2022-11-25T09:15:20;8.13;;;4.50;;
44137;SDS011;29800;55.942;37.314;2022-11-25T09:17:47;9.15;;;4.45;;
44137;SDS011;29800;55.942;37.314;2022-11-25T09:20:13;8.63;;;3.90;;
44137;SDS011;29800;55.942;37.314;2022-11-25T09:22:39;7.57;;;3.97;;
44137;SDS011;29800;55.942;37.314;2022-11-25T09:25:05;9.07;;;4.07;;
44137;SDS011;29800;55.942;37.314;2022-11-25T09:27:32;8.45;;;4.20;;
44137;SDS011;29800;55.942;37.314;2022-11-25T09:29:58;8.20;;;3.90;;
44137;SDS011;29800;55.942;37.314;2022-11-25T09:32:24;7.97;;;4.22;;
44137;SDS011;29800;55.942;37.314;2022-11-25T09:34:50;8.43;;;4.72;;
44137;SDS011;29800;55.942;37.314;2022-11-25T09:37:16;8.65;;;4.32;;
44137;SDS011;29800;55.942;37.314;2022-11-25T09:39:42;7.68;;;4.05;;
44137;SDS011;29800;55.942;37.314;2022-11-25T09:45:27;10.25;;;4.25;;
44137;SDS011;29800;55.942;37.314;2022-11-25T09:53:44;9.13;;;4.68;;
44137;SDS011;29800;55.942;37.314;2022-11-25T09:56:34;10.25;;;4.30;;
44137;SDS011;29800;55.942;37.314;2022-11-25T09:59:33;9.45;;;4.55;;
44137;SDS011;29800;55.942;37.314;2022-11-25T10:02:21;8.20;;;4.40;;
44137;SDS011;29800;55.942;37.314;2022-11-25T10:05:02;8.65;;;4.53;;
44137;SDS011;29800;55.942;37.314;2022-11-25T10:07:35;8.30;;;4.47;;
44137;SDS011;29800;55.942;37.314;2022-11-25T10:10:05;8.02;;;4.38;;
44137;SDS011;29800;55.942;37.314;2022-11-25T10:12:39;7.88;;;4.47;;
44137;SDS011;29800;55.942;37.314;2022-11-25T10:15:18;7.50;;;4.20;;
44137;SDS011;29800;55.942;37.314;2022-11-25T10:17:51;10.10;;;4.40;;
44137;SDS011;29800;55.942;37.314;2022-11-25T10:20:23;7.82;;;3.85;;
44137;SDS011;29800;55.942;37.314;2022-11-25T10:22:53;10.32;;;4.40;;
44137;SDS011;29800;55.942;37.314;2022-11-25T10:25:22;7.15;;;3.97;;
44137;SDS011;29800;55.942;37.314;2022-11-25T10:33:32;8.52;;;4.95;;
44137;SDS011;29800;55.942;37.314;2022-11-25T10:41:21;9.18;;;4.88;;
44137;SDS011;29800;55.942;37.314;2022-11-25T10:43:50;8.75;;;4.78;;
44137;SDS011;29800;55.942;37.314;2022-11-25T10:46:29;14.20;;;6.40;;
44137;SDS011;29800;55.942;37.314;2022-11-25T10:51:47;8.80;;;4.57;;
44137;SDS011;29800;55.942;37.314;2022-11-25T12:36:20;4.82;;;2.92;;
44137;SDS011;29800;55.942;37.314;2022-11-25T12:38:54;4.55;;;2.80;;
44137;SDS011;29800;55.942;37.314;2022-11-25T12:41:46;4.93;;;2.97;;
44137;SDS011;29800;55.942;37.314;2022-11-25T12:46:51;5.45;;;2.88;;
44137;SDS011;29800;55.942;37.314;2022-11-25T12:49:19;5.03;;;2.80;;
44137;SDS011;29800;55.942;37.314;2022-11-25T12:57:22;6.15;;;3.28;;
44137;SDS011;29800;55.942;37.314;2022-11-25T13:08:21;6.03;;;3.10;;
44137;SDS011;29800;55.942;37.314;2022-11-25T13:16:40;4.97;;;2.90;;
44137;SDS011;29800;55.942;37.314;2022-11-25T13:19:09;6.95;;;3.20;;
44137;SDS011;29800;55.942;37.314;2022-11-25T13:21:54;10.45;;;3.22;;
44137;SDS011;29800;55.942;37.314;2022-11-25T13:24:37;7.03;;;3.42;;
44137;SDS011;29800;55.942;37.314;2022-11-25T13:27:07;7.15;;;3.25;;
44137;SDS011;29800;55.942;37.314;2022-11-25T13:29:58;6.85;;;3.60;;
44137;SDS011;29800;55.942;37.314;2022-11-25T13:32:26;5.07;;;3.10;;
44137;SDS011;29800;55.942;37.314;2022-11-25T13:37:47;6.55;;;3.55;;
44137;SDS011;29800;55.942;37.314;2022-11-25T13:42:58;4.47;;;2.95;;
44137;SDS011;29800;55.942;37.314;2022-11-25T13:45:26;6.65;;;3.40;;
44137;SDS011;29800;55.942;37.314;2022-11-25T13:47:53;6.78;;;3.58;;
44137;SDS011;29800;55.942;37.314;2022-11-25T13:55:33;6.80;;;3.40;;
44137;SDS011;29800;55.942;37.314;2022-11-25T14:14:01;7.13;;;3.47;;
44137;SDS011;29800;55.942;37.314;2022-11-25T14:19:45;6.68;;;3.45;;
44137;SDS011;29800;55.942;37.314;2022-11-25T14:28:29;6.28;;;3.17;;
44137;SDS011;29800;55.942;37.314;2022-11-25T14:31:16;4.65;;;2.58;;
44137;SDS011;29800;55.942;37.314;2022-11-25T14:33:56;4.53;;;2.95;;
44137;SDS011;29800;55.942;37.314;2022-11-25T14:36:29;4.93;;;2.65;;
44137;SDS011;29800;55.942;37.314;2022-11-25T14:39:01;5.07;;;2.85;;
44137;SDS011;29800;55.942;37.314;2022-11-25T14:44:32;6.07;;;3.33;;
44137;SDS011;29800;55.942;37.314;2022-11-25T14:47:24;5.45;;;3.13;;
44137;SDS011;29800;55.942;37.314;2022-11-25T14:49:53;6.10;;;3.72;;
44137;SDS011;29800;55.942;37.314;2022-11-25T14:52:25;5.85;;;3.35;;
44137;SDS011;29800;55.942;37.314;2022-11-25T14:54:54;6.13;;;3.50;;
44137;SDS011;29800;55.942;37.314;2022-11-25T14:57:23;6.88;;;3.50;;
44137;SDS011;29800;55.942;37.314;2022-11-25T14:59:51;6.43;;;3.15;;
44137;SDS011;29800;55.942;37.314;2022-11-25T15:02:22;7.68;;;3.47;;
44137;SDS011;29800;55.942;37.314;2022-11-25T15:04:59;5.55;;;3.10;;
44137;SDS011;29800;55.942;37.314;2022-11-25T15:07:35;6.78;;;3.60;;
44137;SDS011;29800;55.942;37.314;2022-11-25T15:10:06;6.78;;;3.30;;
44137;SDS011;29800;55.942;37.314;2022-11-25T15:12:58;5.78;;;3.25;;
44137;SDS011;29800;55.942;37.314;2022-11-25T15:15:29;6.25;;;3.50;;
44137;SDS011;29800;55.942;37.314;2022-11-25T15:17:55;5.57;;;3.30;;
44137;SDS011;29800;55.942;37.314;2022-11-25T15:20:21;5.43;;;3.45;;
44137;SDS011;29800;55.942;37.314;2022-11-25T15:22:50;8.15;;;3.47;;
44137;SDS011;29800;55.942;37.314;2022-11-25T15:25:17;6.25;;;3.40;;
44137;SDS011;29800;55.942;37.314;2022-11-25T15:27:45;7.57;;;4.55;;
44137;SDS011;29800;55.942;37.314;2022-11-25T15:30:22;5.32;;;3.40;;
44137;SDS011;29800;55.942;37.314;2022-11-25T15:32:48;12.48;;;3.22;;
44137;SDS011;29800;55.942;37.314;2022-11-25T15:35:16;6.50;;;3.30;;
44137;SDS011;29800;55.942;37.314;2022-11-25T15:37:46;4.90;;;3.13;;
44137;SDS011;29800;55.942;37.314;2022-11-25T15:40:28;5.47;;;3.67;;
44137;SDS011;29800;55.942;37.314;2022-11-25T15:42:56;5.72;;;3.20;;
44137;SDS011;29800;55.942;37.314;2022-11-25T15:45:24;5.57;;;2.92;;
44137;SDS011;29800;55.942;37.314;2022-11-25T15:47:55;7.80;;;2.95;;
44137;SDS011;29800;55.942;37.314;2022-11-25T15:50:22;5.57;;;3.42;;
44137;SDS011;29800;55.942;37.314;2022-11-25T15:52:52;6.18;;;3.20;;
44137;SDS011;29800;55.942;37.314;2022-11-25T15:58:01;7.20;;;3.35;;
44137;SDS011;29800;55.942;37.314;2022-11-25T16:00:31;6.50;;;3.65;;
44137;SDS011;29800;55.942;37.314;2022-11-25T16:02:57;5.90;;;3.20;;
44137;SDS011;29800;55.942;37.314;2022-11-25T16:05:33;6.55;;;3.20;;
44137;SDS011;29800;55.942;37.314;2022-11-25T16:08:50;5.25;;;3.08;;
44137;SDS011;29800;55.942;37.314;2022-11-25T16:11:10;6.53;;;3.25;;
44137;SDS011;29800;55.942;37.314;2022-11-25T16:13:40;6.00;;;3.53;;
44137;SDS011;29800;55.942;37.314;2022-11-25T16:16:09;6.07;;;2.80;;
44137;SDS011;29800;55.942;37.314;2022-11-25T16:26:31;6.35;;;2.95;;
44137;SDS011;29800;55.942;37.314;2022-11-25T16:29:17;6.50;;;3.30;;
44137;SDS011;29800;55.942;37.314;2022-11-25T16:31:47;5.15;;;2.83;;
44137;SDS011;29800;55.942;37.314;2022-11-25T16:34:14;4.63;;;3.05;;
44137;SDS011;29800;55.942;37.314;2022-11-25T16:36:42;6.43;;;2.88;;
44137;SDS011;29800;55.942;37.314;2022-11-25T16:39:08;5.43;;;3.03;;
44137;SDS011;29800;55.942;37.314;2022-11-25T16:41:35;5.60;;;3.15;;
44137;SDS011;29800;55.942;37.314;2022-11-25T16:44:04;5.93;;;2.92;;
44137;SDS011;29800;55.942;37.314;2022-11-25T16:46:45;4.43;;;2.78;;
44137;SDS011;29800;55.942;37.314;2022-11-25T16:49:16;4.93;;;2.90;;
44137;SDS011;29800;55.942;37.314;2022-11-25T16:51:44;5.72;;;2.88;;
44137;SDS011;29800;55.942;37.314;2022-11-25T16:54:10;5.07;;;3.30;;
44137;SDS011;29800;55.942;37.314;2022-11-25T16:56:38;4.63;;;2.97;;
44137;SDS011;29800;55.942;37.314;2022-11-25T16:59:12;5.30;;;2.95;;
44137;SDS011;29800;55.942;37.314;2022-11-25T17:01:45;4.47;;;3.05;;
44137;SDS011;29800;55.942;37.314;2022-11-25T17:04:11;4.68;;;2.65;;
44137;SDS011;29800;55.942;37.314;2022-11-25T17:06:38;6.07;;;2.78;;
44137;SDS011;29800;55.942;37.314;2022-11-25T17:09:06;5.47;;;2.92;;
44137;SDS011;29800;55.942;37.314;2022-11-25T17:11:33;4.00;;;2.65;;
44137;SDS011;29800;55.942;37.314;2022-11-25T17:14:03;4.28;;;2.80;;
44137;SDS011;29800;55.942;37.314;2022-11-25T17:16:32;4.75;;;2.58;;
44137;SDS011;29800;55.942;37.314;2022-11-25T17:18:58;3.83;;;2.33;;
44137;SDS011;29800;55.942;37.314;2022-11-25T17:21:25;4.97;;;2.45;;
44137;SDS011;29800;55.942;37.314;2022-11-25T17:23:59;3.47;;;2.13;;
44137;SDS011;29800;55.942;37.314;2022-11-25T17:26:37;4.05;;;2.45;;
44137;SDS011;29800;55.942;37.314;2022-11-25T17:29:05;4.45;;;2.50;;
44137;SDS011;29800;55.942;37.314;2022-11-25T17:31:36;5.20;;;2.75;;
44137;SDS011;29800;55.942;37.314;2022-11-25T17:34:03;4.38;;;2.42;;
44137;SDS011;29800;55.942;37.314;2022-11-25T17:36:29;4.60;;;2.45;;
44137;SDS011;29800;55.942;37.314;2022-11-25T17:38:55;4.75;;;2.50;;
44137;SDS011;29800;55.942;37.314;2022-11-25T17:41:23;4.32;;;2.50;;
44137;SDS011;29800;55.942;37.314;2022-11-25T17:43:51;3.65;;;2.25;;
44137;SDS011;29800;55.942;37.314;2022-11-25T17:46:18;5.65;;;2.45;;
44137;SDS011;29800;55.942;37.314;2022-11-25T17:48:44;4.53;;;2.85;;
44137;SDS011;29800;55.942;37.314;2022-11-25T17:51:11;4.57;;;2.60;;
44137;SDS011;29800;55.942;37.314;2022-11-25T17:53:39;5.32;;;3.00;;
44137;SDS011;29800;55.942;37.314;2022-11-25T17:56:16;4.93;;;3.10;;
44137;SDS011;29800;55.942;37.314;2022-11-25T17:58:47;5.68;;;3.05;;
44137;SDS011;29800;55.942;37.314;2022-11-25T18:01:14;5.65;;;3.30;;
44137;SDS011;29800;55.942;37.314;2022-11-25T18:03:40;6.82;;;3.53;;
44137;SDS011;29800;55.942;37.314;2022-11-25T18:06:06;6.43;;;3.53;;
44137;SDS011;29800;55.942;37.314;2022-11-25T18:08:32;5.30;;;3.30;;
44137;SDS011;29800;55.942;37.314;2022-11-25T18:10:59;5.57;;;3.38;;
44137;SDS011;29800;55.942;37.314;2022-11-25T18:13:27;5.28;;;3.00;;